Historyczne dane pomiarowe

Dodano dane terminowe – wersja testowa.

Dane z okresu 1951-2019

Wersja bazy: 1.34 [2019-03-16, lista zmian], aktualizacja planowana na 2019-04-15

Dane meteo z obszaru Polski uzyskane na podstawie danych udostępnionych przez Instytut Meteorologii i Gospodarki Wodnej – Państwowy Instytut Badawczy.

 

Wybierz Datę:    

       

TemperaturaWilgotnośćWiatrCiśnienieOpadyŚniegCzas trwania zjawisk
 Stacja t tx tn tng RH VA  wxwx mslp ppp RRR   cm mm wxwxwxwxwxwxwx
1987-08-14 12.6 15.2 9.8 5.2 92.5- 8.0 2.7---- 12.0------------
1987-08-13 12.8 18.0 8.5 4.1 84.3- 5.0 2.3---- 0.0------------
1987-08-12 11.5 14.6 9.0 5.8 88.3- 4.3 2.3---- 2.6------------
1987-08-11 12.1 14.7 10.9 7.2 90.0- 6.3 2.0---- 2.0------------
1987-08-10 13.8 17.7 12.3 9.5 84.5- 4.3 1.7---- 0.0------------
1987-08-09 14.6 19.2 10.5 6.3 85.3- 5.3 2.0---- 1.4------------
1987-08-08 12.8 19.1 7.0 2.0 75.8- 4.0 2.7---- 0.1------------
1987-08-07 11.9 16.3 8.2 5.2 80.5- 3.7 4.3---- 0.0------------
1987-08-06 10.9 15.2 10.3 7.8 96.0- 6.3 3.7---- 4.4------------
1987-08-05 10.8 13.1 9.6 6.5 95.3- 7.7 5.3---- 1.6------------
1987-08-04 11.2 14.3 10.1 7.2 92.3- 7.0 2.7---- 2.8------------
1987-08-03 11.7 14.6 9.6 6.1 91.5- 7.0 3.0---- 7.1------------
1987-08-02 11.6 16.4 9.1 5.8 87.5- 5.0 3.3---- 4.6------------
1987-08-01 14.5 17.5 13.2 11.1 88.3- 7.0 3.7---- 2.3------------
1987-07-31 14.1 16.9 12.2 10.6 86.0- 7.0 3.3---- 0.3------------
1987-07-30 15.4 18.3 11.5 8.8 84.3- 5.3 2.7---- 1.1------------
1987-07-29 12.7 15.3 11.2 9.1 85.8- 6.7 2.3---- 0.0------------
1987-07-28 13.2 17.8 9.8 6.8 86.8- 5.7 4.3---- 5.0------------
1987-07-27 11.2 14.2 9.2 6.1 84.5- 7.3 6.3---- 0.0------------
1987-07-26 11.8 15.6 8.8 5.4 76.8- 5.3 4.3---- 0.6------------
1987-07-25 13.6 17.2 11.4 9.4 85.3- 5.3 3.7---- 0.0------------
1987-07-24 17.8 21.7 13.6 10.1 85.5- 6.7 3.0---- 0.7------------
1987-07-23 19.2 23.3 14.5 11.2 84.0- 4.7 1.3---- 0.0------------
1987-07-22 18.6 23.8 14.6 12.2 87.8- 6.0 1.3---- 0.6------------
1987-07-21 18.0 23.7 12.4 9.8 81.0- 2.3 2.0---- 0.0------------
1987-07-20 15.4 17.6 13.8 12.5 98.3- 6.3 1.7---- 4.3------------
1987-07-19 16.8 20.8 15.4 12.3 94.3- 8.0 4.3---- 30.5------------
1987-07-18 18.8 22.1 16.0 13.4 82.8- 5.7 3.0---- 0.0------------
1987-07-17 18.7 23.1 14.2 10.5 75.0- 4.3 6.3---- 0.0------------
1987-07-16 16.4 20.9 11.5 7.8 74.5- 4.0 3.0---- 0.0------------
1987-07-15 15.3 21.1 8.8 4.8 74.0- 2.3 2.7---- 0.0------------
1987-07-14 15.7 20.3 10.4 6.9 73.5- 3.0 3.0---- 0.0------------
1987-07-13 14.2 16.7 12.6 9.2 77.0- 6.0 7.0---- 0.7------------
1987-07-12 16.0 19.7 13.6 12.1 88.0- 6.3 5.7---- 9.1------------
1987-07-11 11.2 14.1 8.8 5.1 87.3- 8.0 3.0---- 6.5------------
1987-07-10 11.9 16.1 9.0 6.1 76.3- 4.3 7.3---- 3.7------------
1987-07-09 14.3 19.1 11.6 9.8 79.0- 5.3 3.7---- 5.6------------
1987-07-08 19.5 26.8 14.2 8.9 64.5- 4.3 3.3---- 11.0------------
1987-07-07 20.7 27.4 10.2 6.3 42.8- 0.7 4.0---- 0.0------------
1987-07-06 17.6 25.2 6.6 2.5 46.3- 0.0 1.7---- 0.0------------
1987-07-05 15.7 21.3 10.2 5.6 50.0- 0.0 3.3---- 0.0------------
1987-07-04 14.9 19.3 11.0 8.2 66.0- 2.7 3.7---- 0.0------------
1987-07-03 14.9 20.5 6.8 3.0 64.5- 2.3 1.7---- 0.0------------
1987-07-02 15.1 20.6 9.8 5.3 67.5- 2.3 4.0---- 0.0------------
1987-07-01 20.7 26.0 17.6 15.1 80.8- 5.3 3.7---- 0.0------------
1987-06-30 23.2 28.6 18.0 14.6 76.3- 4.7 2.3---- 0.0------------
1987-06-29 15.9 21.6 9.6 4.7 81.0- 5.0 4.3---- 0.0------------
1987-06-28 13.8 18.7 10.8 9.2 63.0- 3.3 2.3---- 0.0------------
1987-06-27 14.9 18.8 12.1 9.0 61.3- 2.0 1.7---- 2.0------------
1987-06-26 14.5 18.9 7.0 3.7 62.5- 3.7 2.0---- 0.0------------
1987-06-25 11.6 15.5 7.3 3.1 72.8- 4.3 2.7---- 0.0------------
1987-06-24 12.3 15.3 10.8 8.1 85.0- 7.7 2.3---- 1.9------------
1987-06-23 13.8 19.2 9.3 6.2 74.8- 6.0 1.3---- 1.8------------
1987-06-22 13.3 16.2 11.6 9.8 84.5- 6.3 2.0---- 0.0------------
1987-06-21 15.7 21.2 12.9 7.2 77.5- 6.7 2.7---- 2.2------------
1987-06-20 14.4 19.7 7.5 2.1 66.5- 2.7 1.7---- 0.0------------
1987-06-19 10.3 13.3 8.6 6.3 84.3- 6.0 4.3---- 0.0------------
1987-06-18 10.7 14.3 6.2 2.1 71.3- 4.3 7.0---- 1.0------------
1987-06-17 11.0 13.7 9.2 6.8 67.5- 3.7 7.0---- 0.0------------
1987-06-16 10.6 13.9 8.3 6.5 90.3- 8.0 4.0---- 4.5------------
513.4 ms

 

Źródłem pochodzenia danych jest Instytut Meteorologii i Gospodarki Wodnej – Państwowy Instytut Badawczy. Dane Instytutu Meteorologii i Gospodarki Wodnej – Państwowego Instytutu Badawczego zostały przetworzone.

Dane źródłowe można odnaleźć na stronie https://dane.imgw.pl